createdAt,value
2022-07-31T00:00:17.909Z,97335.75
2022-07-31T00:02:44.690Z,97339.19
2022-07-31T00:05:11.533Z,97337.78
2022-07-31T00:07:38.140Z,97334.97
2022-07-31T00:10:06.118Z,97332.44
2022-07-31T00:12:34.767Z,97335.09
2022-07-31T00:15:06.923Z,97333.00
2022-07-31T00:17:34.616Z,97337.31
2022-07-31T00:20:01.845Z,97338.41
2022-07-31T00:22:28.433Z,97334.25
2022-07-31T00:24:55.016Z,97342.19
2022-07-31T00:27:21.706Z,97348.16
2022-07-31T00:29:48.205Z,97350.53
2022-07-31T00:32:15.034Z,97352.50
2022-07-31T00:34:42.509Z,97350.34
2022-07-31T00:37:10.536Z,97343.31
2022-07-31T00:39:37.120Z,97345.13
2022-07-31T00:42:03.974Z,97342.47
2022-07-31T00:44:30.461Z,97339.25
2022-07-31T00:46:58.048Z,97347.47
2022-07-31T00:49:37.653Z,97338.22
2022-07-31T00:52:05.587Z,97342.00
2022-07-31T00:54:32.526Z,97345.75
2022-07-31T00:56:59.063Z,97333.72
2022-07-31T00:59:28.161Z,97342.19
2022-07-31T01:01:55.853Z,97336.25
2022-07-31T01:04:22.641Z,97337.00
2022-07-31T01:06:51.911Z,97334.09
2022-07-31T01:09:18.596Z,97341.09
2022-07-31T01:11:51.859Z,97335.81
2022-07-31T01:14:22.109Z,97335.22
2022-07-31T01:16:52.369Z,97345.47
2022-07-31T01:19:42.060Z,97336.09
2022-07-31T01:22:35.241Z,97336.34
2022-07-31T01:25:28.825Z,97332.97
2022-07-31T01:28:10.295Z,97338.19
2022-07-31T01:30:52.987Z,97341.28
2022-07-31T01:33:30.335Z,97349.25
2022-07-31T01:36:07.927Z,97344.19
2022-07-31T01:38:42.445Z,97344.13
2022-07-31T01:41:23.519Z,97351.78
2022-07-31T01:43:54.347Z,97346.91
2022-07-31T01:46:22.981Z,97342.88
2022-07-31T01:48:50.258Z,97342.91
2022-07-31T01:51:18.661Z,97341.13
2022-07-31T01:53:47.386Z,97338.00
2022-07-31T01:56:17.310Z,97342.72
2022-07-31T01:58:45.167Z,97348.75
2022-07-31T02:01:13.895Z,97343.69
2022-07-31T02:03:44.224Z,97350.19
2022-07-31T02:06:18.031Z,97358.28
2022-07-31T02:08:47.492Z,97354.00
2022-07-31T02:11:19.053Z,97348.97
2022-07-31T02:13:47.274Z,97349.19
2022-07-31T02:16:16.754Z,97344.50
2022-07-31T02:18:43.811Z,97342.38
2022-07-31T02:21:10.558Z,97339.47
2022-07-31T02:23:38.314Z,97345.16
2022-07-31T02:26:07.084Z,97342.13
2022-07-31T02:28:37.983Z,97351.19
2022-07-31T02:31:08.133Z,97352.34
2022-07-31T02:33:36.562Z,97351.13
2022-07-31T02:36:04.463Z,97348.50
2022-07-31T02:38:33.582Z,97350.88
2022-07-31T02:41:04.874Z,97345.50
2022-07-31T02:43:33.292Z,97339.69
2022-07-31T02:46:00.573Z,97339.22
2022-07-31T02:48:27.660Z,97338.63
2022-07-31T02:50:54.681Z,97342.59
2022-07-31T02:53:21.804Z,97340.56
2022-07-31T02:55:50.560Z,97341.41
2022-07-31T02:58:17.673Z,97345.59
2022-07-31T03:00:44.341Z,97348.97
2022-07-31T03:03:11.079Z,97349.09
2022-07-31T03:05:44.933Z,97337.31
2022-07-31T03:08:11.893Z,97341.88
2022-07-31T03:10:38.694Z,97341.38
2022-07-31T03:13:06.571Z,97340.56
2022-07-31T03:15:34.025Z,97340.44
2022-07-31T03:18:01.427Z,97332.13
2022-07-31T03:20:35.113Z,97336.22
2022-07-31T03:23:06.688Z,97344.78
2022-07-31T03:25:33.429Z,97339.44
2022-07-31T03:28:00.499Z,97346.53
2022-07-31T03:30:27.053Z,97340.50
2022-07-31T03:32:54.888Z,97351.94
2022-07-31T03:35:22.363Z,97354.72
2022-07-31T03:37:49.585Z,97347.00
2022-07-31T03:40:16.451Z,97358.22
2022-07-31T03:42:43.530Z,97353.88
2022-07-31T03:45:12.276Z,97353.63
2022-07-31T03:47:40.138Z,97347.47
2022-07-31T03:50:08.864Z,97354.97
2022-07-31T03:52:36.717Z,97362.53
2022-07-31T03:55:04.828Z,97359.66
2022-07-31T03:57:43.988Z,97366.88
2022-07-31T04:00:16.985Z,97362.31
2022-07-31T04:02:47.384Z,97365.78
2022-07-31T04:05:14.279Z,97367.97
2022-07-31T04:07:40.811Z,97367.63
2022-07-31T04:10:07.954Z,97366.56
2022-07-31T04:12:42.664Z,97370.06
2022-07-31T04:15:12.380Z,97375.59
2022-07-31T04:17:38.988Z,97382.31
2022-07-31T04:20:06.689Z,97368.81
2022-07-31T04:22:33.977Z,97379.69
2022-07-31T04:25:02.012Z,97374.81
2022-07-31T04:27:28.548Z,97377.72
2022-07-31T04:29:55.711Z,97369.19
2022-07-31T04:32:22.376Z,97372.44
2022-07-31T04:34:51.485Z,97373.09
2022-07-31T04:37:18.043Z,97374.03
2022-07-31T04:39:44.637Z,97382.28
2022-07-31T04:42:13.856Z,97383.66
2022-07-31T04:44:40.837Z,97385.91
2022-07-31T04:47:07.649Z,97386.09
2022-07-31T04:49:34.417Z,97383.63
2022-07-31T04:52:01.407Z,97384.00
2022-07-31T04:54:28.607Z,97373.97
2022-07-31T04:56:59.037Z,97376.88
2022-07-31T05:00:00.062Z,97377.94
2022-07-31T05:02:12.438Z,97368.97
2022-07-31T05:04:38.988Z,97366.34
2022-07-31T05:07:05.524Z,97369.69
2022-07-31T05:09:34.212Z,97368.31
2022-07-31T05:12:05.107Z,97374.31
2022-07-31T05:14:31.931Z,97364.53
2022-07-31T05:16:58.514Z,97369.84
2022-07-31T05:19:32.088Z,97369.22
2022-07-31T05:22:02.298Z,97370.72
2022-07-31T05:24:32.668Z,97373.81
2022-07-31T05:27:03.309Z,97373.72
2022-07-31T05:29:31.383Z,97365.84
2022-07-31T05:31:59.402Z,97375.03
2022-07-31T05:34:37.102Z,97372.47
2022-07-31T05:37:06.540Z,97372.03
2022-07-31T05:39:33.318Z,97380.00
2022-07-31T05:42:04.429Z,97370.78
2022-07-31T05:44:32.127Z,97364.19
2022-07-31T05:49:26.874Z,97370.25
2022-07-31T05:51:54.689Z,97372.75
2022-07-31T05:54:23.320Z,97370.31
2022-07-31T05:56:50.288Z,97372.47
2022-07-31T05:59:16.842Z,97371.78
2022-07-31T06:01:43.964Z,97366.91
2022-07-31T06:04:10.791Z,97367.88
2022-07-31T06:06:37.865Z,97373.75
2022-07-31T06:09:05.158Z,97373.44
2022-07-31T06:11:33.275Z,97362.91
2022-07-31T06:14:07.185Z,97377.53
2022-07-31T06:16:33.766Z,97364.34
2022-07-31T06:19:00.905Z,97370.69
2022-07-31T06:21:30.775Z,97370.88
2022-07-31T06:24:00.818Z,97381.91
2022-07-31T06:26:28.925Z,97378.59
2022-07-31T06:28:56.183Z,97388.53
2022-07-31T06:31:23.487Z,97378.63
2022-07-31T06:33:51.505Z,97388.06
2022-07-31T06:36:19.719Z,97388.50
2022-07-31T06:38:46.536Z,97390.44
2022-07-31T06:41:36.385Z,97387.94
2022-07-31T06:44:04.942Z,97386.03
2022-07-31T06:46:31.866Z,97390.81
2022-07-31T06:48:58.486Z,97385.56
2022-07-31T06:51:32.719Z,97386.09
2022-07-31T06:54:05.895Z,97382.59
2022-07-31T06:56:33.970Z,97384.25
2022-07-31T06:59:01.026Z,97387.63
2022-07-31T07:01:28.368Z,97382.19
2022-07-31T07:03:57.548Z,97385.75
2022-07-31T07:06:24.605Z,97384.66
2022-07-31T07:08:51.950Z,97385.13
2022-07-31T07:11:21.499Z,97377.25
2022-07-31T07:13:48.096Z,97377.97
2022-07-31T07:16:15.565Z,97376.47
2022-07-31T07:18:43.144Z,97368.91
2022-07-31T07:21:10.490Z,97373.25
2022-07-31T07:23:38.347Z,97369.03
2022-07-31T07:26:05.500Z,97366.63
2022-07-31T07:28:32.391Z,97371.38
2022-07-31T07:30:59.095Z,97373.16
2022-07-31T07:33:39.560Z,97367.63
2022-07-31T07:36:10.490Z,97369.75
2022-07-31T07:38:48.407Z,97363.69
2022-07-31T07:41:14.954Z,97372.41
2022-07-31T07:43:45.144Z,97366.75
2022-07-31T07:46:18.475Z,97364.22
2022-07-31T07:48:45.099Z,97365.44
2022-07-31T07:51:12.226Z,97363.38
2022-07-31T07:53:39.210Z,97360.19
2022-07-31T07:56:11.624Z,97357.56
2022-07-31T07:58:38.231Z,97355.50
2022-07-31T08:01:09.192Z,97356.19
2022-07-31T08:03:49.172Z,97344.91
2022-07-31T08:06:19.341Z,97348.59
2022-07-31T08:08:47.821Z,97353.41
2022-07-31T08:11:16.874Z,97339.06
2022-07-31T08:13:49.665Z,97347.81
2022-07-31T08:16:19.175Z,97339.31
2022-07-31T08:18:45.921Z,97350.28
2022-07-31T08:21:12.870Z,97341.34
2022-07-31T08:23:39.426Z,97338.47
2022-07-31T08:26:08.393Z,97335.56
2022-07-31T08:28:36.152Z,97334.19
2022-07-31T08:31:03.352Z,97333.09
2022-07-31T08:33:30.255Z,97341.56
2022-07-31T08:35:56.824Z,97331.69
2022-07-31T08:38:23.518Z,97334.66
2022-07-31T08:40:50.254Z,97334.06
2022-07-31T08:43:59.953Z,97339.06
2022-07-31T08:46:06.004Z,97338.84
2022-07-31T08:48:33.333Z,97342.56
2022-07-31T08:51:02.525Z,97341.97
2022-07-31T08:53:32.977Z,97350.31
2022-07-31T08:55:59.900Z,97336.50
2022-07-31T08:58:26.449Z,97347.53
2022-07-31T09:00:53.783Z,97335.09
2022-07-31T09:03:20.593Z,97335.47
2022-07-31T09:05:47.119Z,97330.38
2022-07-31T09:08:15.133Z,97327.50
2022-07-31T09:10:47.594Z,97330.91
2022-07-31T09:13:18.134Z,97316.00
2022-07-31T09:15:45.236Z,97315.06
2022-07-31T09:18:21.994Z,97321.06
2022-07-31T09:20:58.750Z,97311.75
2022-07-31T09:23:27.809Z,97307.38
2022-07-31T09:25:55.865Z,97301.72
2022-07-31T09:28:32.986Z,97302.75
2022-07-31T09:31:00.219Z,97313.56
2022-07-31T09:33:28.272Z,97298.13
2022-07-31T09:35:55.675Z,97303.94
2022-07-31T09:38:29.021Z,97304.28
2022-07-31T09:40:57.770Z,97296.91
2022-07-31T09:43:31.876Z,97292.84
2022-07-31T09:46:00.098Z,97291.78
2022-07-31T09:48:28.554Z,97289.19
2022-07-31T09:50:55.615Z,97288.97
2022-07-31T09:53:22.702Z,97283.78
2022-07-31T09:55:53.607Z,97286.97
2022-07-31T09:58:21.138Z,97289.38
2022-07-31T10:00:51.849Z,97282.94
2022-07-31T10:03:19.598Z,97284.19
2022-07-31T10:05:47.813Z,97285.09
2022-07-31T10:08:15.034Z,97290.34
2022-07-31T10:10:46.254Z,97280.78
2022-07-31T10:13:15.664Z,97289.28
2022-07-31T10:15:47.116Z,97277.41
2022-07-31T10:18:17.305Z,97277.03
2022-07-31T10:20:53.098Z,97271.84
2022-07-31T10:23:27.220Z,97274.19
2022-07-31T10:25:58.191Z,97269.56
2022-07-31T10:28:25.400Z,97272.53
2022-07-31T10:30:52.713Z,97265.41
2022-07-31T10:33:42.616Z,97264.97
2022-07-31T10:36:11.716Z,97268.31
2022-07-31T10:39:06.897Z,97271.53
2022-07-31T10:41:36.466Z,97267.13
2022-07-31T10:44:10.813Z,97266.56
2022-07-31T10:46:37.683Z,97260.47
2022-07-31T10:49:08.749Z,97256.22
2022-07-31T10:51:46.560Z,97262.75
2022-07-31T10:54:14.289Z,97249.75
2022-07-31T10:56:45.231Z,97252.50
2022-07-31T10:59:12.172Z,97250.28
2022-07-31T11:01:54.282Z,97240.38
2022-07-31T11:04:32.221Z,97237.41
2022-07-31T11:06:59.379Z,97242.84
2022-07-31T11:09:28.897Z,97239.69
2022-07-31T11:11:57.051Z,97241.94
2022-07-31T11:14:38.174Z,97235.94
2022-07-31T11:17:07.896Z,97234.38
2022-07-31T11:19:42.726Z,97232.06
2022-07-31T11:22:30.637Z,97233.41
2022-07-31T11:25:00.687Z,97234.97
2022-07-31T11:27:31.786Z,97233.50
2022-07-31T11:30:12.422Z,97228.97
2022-07-31T11:32:40.255Z,97229.50
2022-07-31T11:35:07.572Z,97228.47
2022-07-31T11:37:46.288Z,97228.38
2022-07-31T11:40:22.071Z,97219.84
2022-07-31T11:43:04.678Z,97226.56
2022-07-31T11:45:53.011Z,97228.69
2022-07-31T11:48:26.522Z,97215.41
2022-07-31T11:50:54.566Z,97221.78
2022-07-31T11:53:21.459Z,97226.56
2022-07-31T11:55:53.161Z,97214.47
2022-07-31T11:58:21.858Z,97211.72
2022-07-31T12:00:49.253Z,97207.94
2022-07-31T12:03:17.786Z,97210.19
2022-07-31T12:05:48.608Z,97211.13
2022-07-31T12:08:16.096Z,97205.00
2022-07-31T12:10:43.506Z,97202.53
2022-07-31T12:13:17.566Z,97203.97
2022-07-31T12:16:04.970Z,97204.00
2022-07-31T12:18:52.485Z,97201.13
2022-07-31T12:21:20.228Z,97198.53
2022-07-31T12:23:51.605Z,97199.25
2022-07-31T12:26:22.982Z,97189.22
2022-07-31T12:29:11.994Z,97171.88
2022-07-31T12:31:47.590Z,97178.03
2022-07-31T12:34:40.095Z,97189.50
2022-07-31T12:37:11.443Z,97178.28
2022-07-31T12:39:59.725Z,97177.41
2022-07-31T12:42:30.874Z,97170.13
2022-07-31T12:45:18.333Z,97166.81
2022-07-31T12:47:51.195Z,97168.19
2022-07-31T12:50:19.017Z,97163.69
2022-07-31T12:52:45.561Z,97165.03
2022-07-31T12:55:12.234Z,97158.72
2022-07-31T12:57:44.647Z,97148.22
2022-07-31T13:00:24.827Z,97150.25
2022-07-31T13:02:53.038Z,97147.97
2022-07-31T13:05:20.863Z,97136.25
2022-07-31T13:07:47.911Z,97138.50
2022-07-31T13:10:23.823Z,97137.28
2022-07-31T13:12:52.155Z,97132.16
2022-07-31T13:15:22.600Z,97136.41
2022-07-31T13:17:50.519Z,97132.38
2022-07-31T13:20:18.105Z,97126.56
2022-07-31T13:22:44.696Z,97122.78
2022-07-31T13:25:11.260Z,97131.50
2022-07-31T13:27:38.000Z,97118.00
2022-07-31T13:30:05.325Z,97105.44
2022-07-31T13:32:31.994Z,97111.84
2022-07-31T13:35:26.546Z,97109.41
2022-07-31T13:37:46.926Z,97108.56
2022-07-31T13:40:14.505Z,97109.16
2022-07-31T13:42:41.001Z,97114.44
2022-07-31T13:45:08.825Z,97112.13
2022-07-31T13:47:50.491Z,97113.28
2022-07-31T13:50:20.879Z,97117.50
2022-07-31T13:52:47.291Z,97117.75
2022-07-31T13:55:13.826Z,97110.63
2022-07-31T13:57:40.352Z,97114.91
2022-07-31T14:00:07.721Z,97109.91
2022-07-31T14:02:34.581Z,97110.59
2022-07-31T14:05:01.199Z,97105.50
2022-07-31T14:07:45.049Z,97109.56
2022-07-31T14:10:14.107Z,97113.53
2022-07-31T14:12:43.827Z,97108.09
2022-07-31T14:15:10.694Z,97118.53
2022-07-31T14:17:37.257Z,97111.44
2022-07-31T14:20:04.262Z,97102.16
2022-07-31T14:22:32.683Z,97104.06
2022-07-31T14:24:59.576Z,97100.16
2022-07-31T14:27:26.126Z,97101.31
2022-07-31T14:29:52.725Z,97102.13
2022-07-31T14:32:21.763Z,97102.72
2022-07-31T14:34:49.826Z,97103.16
2022-07-31T14:37:16.680Z,97104.63
2022-07-31T14:39:43.493Z,97108.63
2022-07-31T14:42:10.500Z,97096.41
2022-07-31T14:44:38.278Z,97103.06
2022-07-31T14:47:05.123Z,97099.41
2022-07-31T14:50:08.680Z,97099.94
2022-07-31T14:52:18.509Z,97103.69
2022-07-31T14:54:45.071Z,97103.31
2022-07-31T14:57:11.769Z,97100.50
2022-07-31T14:59:38.462Z,97101.03
2022-07-31T15:02:05.594Z,97099.97
2022-07-31T15:04:32.340Z,97093.50
2022-07-31T15:07:19.065Z,97093.50
2022-07-31T15:09:47.280Z,97096.91
2022-07-31T15:12:16.866Z,97101.63
2022-07-31T15:14:46.650Z,97104.19
2022-07-31T15:17:13.176Z,97102.19
2022-07-31T15:19:39.853Z,97097.66
2022-07-31T15:22:10.643Z,97099.31
2022-07-31T15:24:49.325Z,97090.84
2022-07-31T15:27:18.130Z,97085.75
2022-07-31T15:30:05.126Z,97094.28
2022-07-31T15:32:31.420Z,97087.13
2022-07-31T15:34:57.931Z,97082.81
2022-07-31T15:37:24.906Z,97083.78
2022-07-31T15:40:01.505Z,97087.13
2022-07-31T15:42:34.567Z,97078.44
2022-07-31T15:45:01.266Z,97082.66
2022-07-31T15:47:27.853Z,97077.91
2022-07-31T15:49:54.437Z,97075.78
2022-07-31T15:52:21.045Z,97076.84
2022-07-31T15:54:51.565Z,97076.84
2022-07-31T15:57:20.165Z,97071.97
2022-07-31T15:59:46.768Z,97068.88
2022-07-31T16:02:13.356Z,97071.59
2022-07-31T16:04:51.435Z,97070.06
2022-07-31T16:08:31.293Z,97064.63
2022-07-31T16:10:16.204Z,97061.53
2022-07-31T16:12:47.471Z,97054.25
2022-07-31T16:15:15.242Z,97066.59
2022-07-31T16:17:43.098Z,97049.31
2022-07-31T16:20:12.816Z,97046.03
2022-07-31T16:22:41.338Z,97048.16
2022-07-31T16:25:09.948Z,97051.16
2022-07-31T16:27:37.467Z,97046.97
2022-07-31T16:30:05.686Z,97048.47
2022-07-31T16:32:32.660Z,97047.00
2022-07-31T16:35:01.265Z,97030.41
2022-07-31T16:37:51.234Z,97033.97
2022-07-31T16:40:28.610Z,97035.66
2022-07-31T16:43:49.626Z,97032.53
2022-07-31T16:45:51.794Z,97030.22
2022-07-31T16:48:18.459Z,97032.72
2022-07-31T16:50:45.016Z,97030.09
2022-07-31T16:54:12.762Z,97030.16
2022-07-31T16:56:02.015Z,97027.25
2022-07-31T16:58:29.162Z,97032.25
2022-07-31T17:00:57.183Z,97028.53
2022-07-31T17:04:01.461Z,97033.50
2022-07-31T17:06:11.345Z,97027.66
2022-07-31T17:08:38.284Z,97028.09
2022-07-31T17:11:05.329Z,97020.84
2022-07-31T17:13:32.487Z,97029.53
2022-07-31T17:15:58.981Z,97028.72
2022-07-31T17:18:26.176Z,97033.72
2022-07-31T17:20:55.654Z,97037.59
2022-07-31T17:23:43.364Z,97037.81
2022-07-31T17:26:21.233Z,97036.34
2022-07-31T17:28:51.264Z,97035.75
2022-07-31T17:31:18.987Z,97035.72
2022-07-31T17:33:59.823Z,97037.19
2022-07-31T17:36:28.071Z,97038.22
2022-07-31T17:38:54.662Z,97033.03
2022-07-31T17:41:25.156Z,97033.84
2022-07-31T17:43:55.575Z,97036.56
2022-07-31T17:46:29.984Z,97032.59
2022-07-31T17:49:04.076Z,97036.97
2022-07-31T17:51:30.670Z,97043.97
2022-07-31T17:53:59.650Z,97042.34
2022-07-31T17:56:26.675Z,97045.41
2022-07-31T17:58:53.915Z,97047.44
2022-07-31T18:01:24.418Z,97045.34
2022-07-31T18:03:53.725Z,97051.75
2022-07-31T18:06:20.240Z,97055.22
2022-07-31T18:08:47.385Z,97054.38
2022-07-31T18:11:13.889Z,97053.69
2022-07-31T18:13:48.522Z,97058.66
2022-07-31T18:16:19.236Z,97049.72
2022-07-31T18:18:46.191Z,97058.19
2022-07-31T18:21:13.376Z,97050.09
2022-07-31T18:23:43.687Z,97060.81
2022-07-31T18:26:14.565Z,97057.88
2022-07-31T18:28:41.414Z,97057.59
2022-07-31T18:31:24.236Z,97058.56
2022-07-31T18:33:54.490Z,97060.75
2022-07-31T18:36:21.793Z,97066.47
2022-07-31T18:38:48.760Z,97064.09
2022-07-31T18:41:15.277Z,97053.75
2022-07-31T18:43:44.441Z,97059.06
2022-07-31T18:46:10.927Z,97061.50
2022-07-31T18:48:37.575Z,97060.03
2022-07-31T18:51:05.480Z,97065.72
2022-07-31T18:53:33.319Z,97062.16
2022-07-31T18:56:00.525Z,97059.19
2022-07-31T18:58:27.131Z,97059.78
2022-07-31T19:00:55.094Z,97063.19
2022-07-31T19:03:22.202Z,97070.72
2022-07-31T19:05:50.475Z,97070.66
2022-07-31T19:08:17.371Z,97080.31
2022-07-31T19:10:43.969Z,97075.69
2022-07-31T19:13:18.956Z,97083.53
2022-07-31T19:15:47.100Z,97081.50
2022-07-31T19:21:00.420Z,97085.56
2022-07-31T19:23:27.630Z,97086.28
2022-07-31T19:26:03.696Z,97087.59
2022-07-31T19:28:35.090Z,97084.41
2022-07-31T19:31:01.987Z,97083.66
2022-07-31T19:33:28.784Z,97092.75
2022-07-31T19:36:01.497Z,97095.78
2022-07-31T19:38:31.869Z,97093.47
2022-07-31T19:40:59.606Z,97092.63
2022-07-31T19:43:26.161Z,97091.13
2022-07-31T19:45:59.797Z,97091.88
2022-07-31T19:48:40.529Z,97090.88
2022-07-31T19:51:07.294Z,97088.53
2022-07-31T19:53:33.821Z,97092.91
2022-07-31T19:56:05.207Z,97092.59
2022-07-31T19:58:57.230Z,97096.66
2022-07-31T20:01:24.093Z,97096.56
2022-07-31T20:03:53.270Z,97096.56
2022-07-31T20:06:21.013Z,97094.25
2022-07-31T20:08:51.052Z,97093.59
2022-07-31T20:11:18.189Z,97087.94
2022-07-31T20:13:44.819Z,97086.91
2022-07-31T20:16:11.464Z,97089.97
2022-07-31T20:18:38.074Z,97088.50
2022-07-31T20:21:08.004Z,97089.34
2022-07-31T20:23:38.114Z,97095.16
2022-07-31T20:26:10.837Z,97089.69
2022-07-31T20:28:40.140Z,97091.72
2022-07-31T20:31:08.269Z,97083.69
2022-07-31T20:33:47.511Z,97085.25
2022-07-31T20:36:25.659Z,97086.88
2022-07-31T20:38:52.195Z,97086.25
2022-07-31T20:41:18.813Z,97081.88
2022-07-31T20:43:45.519Z,97080.59
2022-07-31T20:46:12.104Z,97081.59
2022-07-31T20:48:38.952Z,97085.09
2022-07-31T20:51:06.920Z,97082.78
2022-07-31T20:53:33.420Z,97072.25
2022-07-31T20:55:59.997Z,97076.28
2022-07-31T20:58:26.881Z,97075.28
2022-07-31T21:00:53.898Z,97074.81
2022-07-31T21:03:21.172Z,97068.44
2022-07-31T21:05:48.041Z,97070.25
2022-07-31T21:08:16.346Z,97076.63
2022-07-31T21:10:43.270Z,97071.44
2022-07-31T21:13:10.085Z,97069.97
2022-07-31T21:15:42.579Z,97068.47
2022-07-31T21:18:15.758Z,97061.63
2022-07-31T21:20:50.617Z,97058.00
2022-07-31T21:23:21.091Z,97062.03
2022-07-31T21:25:47.923Z,97056.13
2022-07-31T21:28:14.630Z,97059.00
2022-07-31T21:30:41.367Z,97052.31
2022-07-31T21:33:09.593Z,97055.56
2022-07-31T21:35:37.691Z,97055.38
2022-07-31T21:38:05.114Z,97059.69
2022-07-31T21:40:36.018Z,97057.00
2022-07-31T21:43:03.603Z,97058.69
2022-07-31T21:45:50.631Z,97051.50
2022-07-31T21:48:19.764Z,97058.69
2022-07-31T21:50:46.578Z,97065.66
2022-07-31T21:53:13.742Z,97063.88
2022-07-31T21:55:40.967Z,97061.19
2022-07-31T21:58:08.586Z,97058.34
2022-07-31T22:00:35.873Z,97058.00
2022-07-31T22:03:03.465Z,97063.41
2022-07-31T22:05:49.383Z,97067.09
2022-07-31T22:08:16.578Z,97066.03
2022-07-31T22:10:43.594Z,97067.88
2022-07-31T22:13:10.327Z,97063.72
2022-07-31T22:15:58.168Z,97068.34
2022-07-31T22:18:26.645Z,97075.19
2022-07-31T22:20:53.780Z,97069.13
2022-07-31T22:23:20.991Z,97068.31
2022-07-31T22:25:49.479Z,97060.28
2022-07-31T22:28:18.923Z,97066.28
2022-07-31T22:30:45.807Z,97062.22
2022-07-31T22:33:12.791Z,97062.22
2022-07-31T22:35:40.779Z,97062.72
2022-07-31T22:38:09.171Z,97058.91
2022-07-31T22:40:35.753Z,97055.06
2022-07-31T22:43:03.348Z,97056.13
2022-07-31T22:45:30.721Z,97049.81
2022-07-31T22:47:57.980Z,97054.25
2022-07-31T22:50:25.257Z,97055.44
2022-07-31T22:52:53.204Z,97049.63
2022-07-31T22:55:20.788Z,97054.03
2022-07-31T22:57:47.471Z,97051.66
2022-07-31T23:00:15.382Z,97052.06
2022-07-31T23:02:43.901Z,97054.63
2022-07-31T23:05:10.475Z,97055.78
2022-07-31T23:07:37.505Z,97045.81
2022-07-31T23:10:05.925Z,97044.00
2022-07-31T23:12:32.599Z,97050.88
2022-07-31T23:14:59.479Z,97044.34
2022-07-31T23:17:27.391Z,97048.53
2022-07-31T23:19:54.976Z,97047.22
2022-07-31T23:22:33.553Z,97050.22
2022-07-31T23:25:08.737Z,97045.72
2022-07-31T23:27:38.678Z,97043.06
2022-07-31T23:30:05.610Z,97050.72
2022-07-31T23:32:32.199Z,97042.72
2022-07-31T23:34:59.264Z,97033.66
2022-07-31T23:37:26.262Z,97041.31
2022-07-31T23:39:53.095Z,97031.44
2022-07-31T23:42:37.941Z,97023.88
2022-07-31T23:45:11.256Z,97030.06
2022-07-31T23:47:45.078Z,97027.34
2022-07-31T23:50:14.045Z,97027.47
2022-07-31T23:52:41.899Z,97022.63
2022-07-31T23:55:08.993Z,97018.13
2022-07-31T23:57:36.142Z,97016.13
